Time;durP1;ratioP1;P1;durP2;ratioP2;P2;SDS_P1;SDS_P2;PMS_P1;PMS_P2;Temp;Humidity;BMP_temperature;BMP_pressure;BME280_temperature;BME280_humidity;BME280_pressure;Samples;Min_cycle;Max_cycle;Signal;HPM_P1;HPM_P2
2021/05/07 00:01:26;;;;;;;;;;;18.70;60.40;;;;;;5036925;28;1280;-68
2021/05/07 00:03:51;;;;;;;;;;;18.70;60.50;;;;;;5054986;28;1236;-67
2021/05/07 00:06:16;;;;;;;;;;;18.60;60.40;;;;;;5053290;28;1894;-68
2021/05/07 00:08:42;;;;;;;;;;;18.70;60.50;;;;;;5044189;28;1123;-69
2021/05/07 00:11:14;;;;;;;;;;;18.60;60.40;;;;;;5055050;28;1350;-69
2021/05/07 00:13:39;;;;;;;;;;;18.60;60.50;;;;;;5052864;28;1208;-69
2021/05/07 00:16:05;;;;;;;;;;;18.60;60.40;;;;;;5054925;28;1283;-69
2021/05/07 00:18:30;;;;;;;;;;;18.60;61.20;;;;;;5037268;28;1297;-69
2021/05/07 00:20:56;;;;;;;;;;;18.60;60.50;;;;;;5054907;28;1440;-69
2021/05/07 00:23:21;;;;;;;;;;;18.70;60.60;;;;;;5055138;28;1267;-68
2021/05/07 00:25:47;;;;;;;;;;;18.60;60.50;;;;;;5045033;28;1973;-69
2021/05/07 00:28:13;;;;;;;;;;;18.70;60.60;;;;;;5054891;28;1248;-69
2021/05/07 00:30:38;;;;;;;;;;;18.60;60.50;;;;;;5054717;28;1272;-69
2021/05/07 00:33:05;;;;;;;;;;;18.60;60.50;;;;;;5045314;28;1215;-68
2021/05/07 00:35:30;;;;;;;;;;;18.60;60.60;;;;;;5054700;28;1377;-68
2021/05/07 00:37:55;;;;;;;;;;;18.60;60.60;;;;;;5054758;28;1279;-69
2021/05/07 00:40:21;;;;;;;;;;;18.60;60.60;;;;;;5036985;28;1355;-69
2021/05/07 00:42:47;;;;;;;;;;;18.60;60.60;;;;;;5054718;28;1236;-68
2021/05/07 00:45:12;;;;;;;;;;;18.60;60.60;;;;;;5041442;28;1946;-68
2021/05/07 00:47:39;;;;;;;;;;;18.60;60.60;;;;;;5044926;28;1084;-68
2021/05/07 00:50:05;;;;;;;;;;;18.60;60.60;;;;;;5034089;28;1284;-68
2021/05/07 00:52:33;;;;;;;;;;;18.60;60.60;;;;;;5032947;28;1414;-68
2021/05/07 00:55:00;;;;;;;;;;;18.60;60.60;;;;;;5034952;28;1064;-68
2021/05/07 00:57:25;;;;;;;;;;;18.60;60.70;;;;;;5033474;28;1119;-69
2021/05/07 00:59:50;;;;;;;;;;;18.60;60.60;;;;;;5034848;28;1131;-68
2021/05/07 01:02:16;;;;;;;;;;;18.60;60.70;;;;;;5033536;28;1327;-68
2021/05/07 01:04:41;;;;;;;;;;;18.60;60.70;;;;;;5034993;28;1047;-68
2021/05/07 01:07:07;;;;;;;;;;;18.60;60.70;;;;;;5033020;28;2021;-67
2021/05/07 01:09:32;;;;;;;;;;;18.60;60.70;;;;;;5035936;28;1340;-68
2021/05/07 01:11:58;;;;;;;;;;;18.60;60.70;;;;;;5065120;23;1679;-65
2021/05/07 01:14:23;;;;;;;;;;;18.60;60.70;;;;;;5042103;28;1287;-65
2021/05/07 01:16:48;;;;;;;;;;;18.50;60.70;;;;;;5061749;28;1235;-65
2021/05/07 01:19:14;;;;;;;;;;;18.50;60.70;;;;;;5060516;28;1219;-66
2021/05/07 01:21:40;;;;;;;;;;;18.60;60.80;;;;;;5054417;28;1369;-66
2021/05/07 01:24:05;;;;;;;;;;;18.50;60.70;;;;;;5046091;28;1224;-66
2021/05/07 01:26:33;;;;;;;;;;;18.60;60.80;;;;;;5045749;28;1906;-65
2021/05/07 01:28:58;;;;;;;;;;;18.50;60.70;;;;;;5045577;28;1183;-66
2021/05/07 01:31:24;;;;;;;;;;;18.50;60.70;;;;;;5045453;28;1291;-65
2021/05/07 01:33:49;;;;;;;;;;;18.60;60.80;;;;;;5045600;28;1616;-65
2021/05/07 01:36:14;;;;;;;;;;;18.60;60.80;;;;;;5045259;28;1231;-67
2021/05/07 01:38:40;;;;;;;;;;;18.50;60.80;;;;;;5048429;28;1236;-66
2021/05/07 01:41:05;;;;;;;;;;;18.50;60.80;;;;;;5047380;28;1411;-65
2021/05/07 01:43:33;;;;;;;;;;;18.50;60.80;;;;;;5044901;28;1112;-66
2021/05/07 01:45:58;;;;;;;;;;;18.50;60.90;;;;;;5043808;28;1988;-66
2021/05/07 01:48:23;;;;;;;;;;;18.50;60.80;;;;;;5044586;28;1354;-66
2021/05/07 01:50:49;;;;;;;;;;;18.50;60.90;;;;;;5050744;28;1307;-66
2021/05/07 01:53:14;;;;;;;;;;;18.50;60.90;;;;;;5054055;28;1740;-67
2021/05/07 01:55:41;;;;;;;;;;;18.50;60.80;;;;;;5035867;28;1382;-65
2021/05/07 01:58:07;;;;;;;;;;;18.50;60.80;;;;;;5035859;28;1203;-66
2021/05/07 02:00:32;;;;;;;;;;;18.50;60.80;;;;;;5035994;28;1539;-65
2021/05/07 02:02:58;;;;;;;;;;;18.50;60.90;;;;;;5053713;28;929;-66
2021/05/07 02:05:26;;;;;;;;;;;18.50;60.90;;;;;;5053441;28;1953;-65
2021/05/07 02:07:52;;;;;;;;;;;18.50;60.90;;;;;;5053685;28;1689;-66
2021/05/07 02:10:18;;;;;;;;;;;18.50;60.90;;;;;;5053636;28;1408;-66
2021/05/07 02:12:43;;;;;;;;;;;18.50;60.90;;;;;;5019194;28;1661;-66
2021/05/07 02:15:12;;;;;;;;;;;18.50;60.90;;;;;;5053446;28;1268;-65
2021/05/07 02:17:38;;;;;;;;;;;18.50;60.90;;;;;;5053361;28;1362;-66
2021/05/07 02:20:04;;;;;;;;;;;18.50;60.90;;;;;;5030788;28;1366;-66
2021/05/07 02:22:30;;;;;;;;;;;18.50;60.90;;;;;;5023554;28;1318;-66
2021/05/07 02:24:56;;;;;;;;;;;18.50;60.90;;;;;;5035331;28;2032;-66
2021/05/07 02:27:21;;;;;;;;;;;18.50;60.90;;;;;;5035153;28;1666;-65
2021/05/07 02:29:46;;;;;;;;;;;18.50;60.90;;;;;;5035512;28;1398;-67
2021/05/07 02:32:12;;;;;;;;;;;18.50;60.90;;;;;;5053187;28;1449;-66
2021/05/07 02:34:37;;;;;;;;;;;18.50;61.00;;;;;;5035304;28;1399;-66
2021/05/07 02:37:03;;;;;;;;;;;18.50;61.00;;;;;;5053072;28;1690;-67
2021/05/07 02:39:28;;;;;;;;;;;18.50;61.00;;;;;;5053113;28;1445;-67
2021/05/07 02:41:54;;;;;;;;;;;18.50;61.00;;;;;;5053100;28;1680;-66
2021/05/07 02:44:19;;;;;;;;;;;18.50;61.00;;;;;;5053097;28;1444;-67
2021/05/07 02:46:44;;;;;;;;;;;18.50;61.00;;;;;;5052506;28;1890;-66
2021/05/07 02:49:10;;;;;;;;;;;18.50;61.00;;;;;;5053069;28;1669;-66
2021/05/07 02:51:35;;;;;;;;;;;18.50;61.00;;;;;;5052924;28;1532;-67
2021/05/07 02:54:01;;;;;;;;;;;18.50;61.00;;;;;;5035228;28;1068;-66
2021/05/07 02:56:26;;;;;;;;;;;18.50;61.00;;;;;;5034673;28;1808;-66
2021/05/07 02:58:52;;;;;;;;;;;18.40;60.90;;;;;;5052972;28;1382;-66
2021/05/07 03:01:17;;;;;;;;;;;18.50;61.00;;;;;;5052955;28;1709;-66
2021/05/07 03:03:43;;;;;;;;;;;18.40;61.00;;;;;;5052889;28;1354;-67
2021/05/07 03:06:08;;;;;;;;;;;18.40;61.00;;;;;;5018131;28;1906;-67
2021/05/07 03:08:33;;;;;;;;;;;18.50;61.10;;;;;;5052914;28;1388;-66
2021/05/07 03:10:59;;;;;;;;;;;18.50;61.10;;;;;;5052406;28;1450;-65
2021/05/07 03:13:24;;;;;;;;;;;18.50;61.10;;;;;;5052867;28;1404;-66
2021/05/07 03:15:50;;;;;;;;;;;18.50;61.10;;;;;;5036652;28;1532;-65
2021/05/07 03:18:16;;;;;;;;;;;18.50;61.10;;;;;;5039142;28;1646;-66
2021/05/07 03:20:41;;;;;;;;;;;18.50;61.10;;;;;;5028354;28;1556;-66
2021/05/07 03:23:07;;;;;;;;;;;18.50;61.10;;;;;;5031680;28;1494;-67
2021/05/07 03:25:32;;;;;;;;;;;18.40;61.10;;;;;;5056308;28;1902;-66
2021/05/07 03:27:58;;;;;;;;;;;18.40;61.10;;;;;;5056546;28;1398;-66
2021/05/07 03:30:23;;;;;;;;;;;18.50;61.10;;;;;;5056364;28;1434;-67
2021/05/07 03:32:48;;;;;;;;;;;18.50;61.10;;;;;;5056682;28;1650;-66
2021/05/07 03:35:14;;;;;;;;;;;18.40;61.00;;;;;;5056411;28;1242;-66
2021/05/07 03:37:39;;;;;;;;;;;18.40;61.00;;;;;;5056218;28;1377;-66
2021/05/07 03:40:05;;;;;;;;;;;18.40;61.80;;;;;;5021686;28;1499;-67
2021/05/07 03:42:32;;;;;;;;;;;18.40;61.00;;;;;;5055965;28;1370;-66
2021/05/07 03:44:57;;;;;;;;;;;18.50;61.10;;;;;;5056341;28;1898;-66
2021/05/07 03:47:23;;;;;;;;;;;18.50;61.00;;;;;;5056062;28;1143;-65
2021/05/07 03:49:48;;;;;;;;;;;18.50;61.00;;;;;;5056076;28;1704;-65
2021/05/07 03:52:13;;;;;;;;;;;18.40;60.90;;;;;;5055615;28;1574;-66
2021/05/07 03:54:39;;;;;;;;;;;18.50;60.90;;;;;;5055104;28;1265;-66
2021/05/07 03:57:05;;;;;;;;;;;18.50;60.80;;;;;;5054851;28;1162;-66
2021/05/07 03:59:30;;;;;;;;;;;18.50;60.80;;;;;;5056034;28;1245;-66
2021/05/07 04:01:55;;;;;;;;;;;18.60;60.80;;;;;;5055994;28;1414;-66
2021/05/07 04:04:21;;;;;;;;;;;18.60;60.70;;;;;;5056003;28;1721;-66
2021/05/07 04:06:46;;;;;;;;;;;18.50;60.70;;;;;;5055186;28;1953;-66
2021/05/07 04:09:15;;;;;;;;;;;18.50;60.60;;;;;;5055226;28;1646;-66
2021/05/07 04:11:54;;;;;;;;;;;18.50;60.60;;;;;;5037341;28;1724;-66
2021/05/07 04:14:19;;;;;;;;;;;18.60;60.60;;;;;;5055359;28;1351;-66
2021/05/07 04:16:45;;;;;;;;;;;18.60;60.50;;;;;;5036309;28;1732;-66
2021/05/07 04:19:10;;;;;;;;;;;18.60;60.50;;;;;;5037335;28;1614;-67
2021/05/07 04:21:36;;;;;;;;;;;18.60;60.50;;;;;;5037763;28;1498;-66
2021/05/07 04:24:01;;;;;;;;;;;18.60;60.40;;;;;;5055446;28;1169;-65
2021/05/07 04:26:27;;;;;;;;;;;18.60;60.50;;;;;;5054222;28;1961;-65
2021/05/07 04:28:52;;;;;;;;;;;18.60;60.40;;;;;;5055143;28;1385;-65
2021/05/07 04:31:17;;;;;;;;;;;18.70;60.50;;;;;;5054887;28;1532;-65
2021/05/07 04:33:43;;;;;;;;;;;18.60;60.40;;;;;;5055153;28;1408;-66
2021/05/07 04:36:08;;;;;;;;;;;18.60;60.40;;;;;;5053994;28;1651;-67
2021/05/07 04:38:34;;;;;;;;;;;18.60;60.30;;;;;;5054350;28;1518;-67
2021/05/07 04:40:59;;;;;;;;;;;18.60;60.30;;;;;;5054697;28;1370;-66
2021/05/07 04:43:25;;;;;;;;;;;18.70;60.40;;;;;;5037424;28;1413;-67
2021/05/07 04:45:50;;;;;;;;;;;18.70;60.30;;;;;;5054940;28;1907;-66
2021/05/07 04:48:16;;;;;;;;;;;18.70;60.30;;;;;;5055073;28;1512;-66
2021/05/07 04:50:41;;;;;;;;;;;18.70;60.30;;;;;;5055207;28;1683;-66
2021/05/07 04:53:07;;;;;;;;;;;18.70;60.30;;;;;;5054774;28;1740;-66
2021/05/07 04:55:32;;;;;;;;;;;18.70;60.30;;;;;;5053640;28;1378;-67
2021/05/07 04:57:58;;;;;;;;;;;18.70;60.30;;;;;;5054196;28;1672;-66
2021/05/07 05:00:23;;;;;;;;;;;18.70;60.20;;;;;;5054537;28;1665;-67
2021/05/07 05:02:48;;;;;;;;;;;18.70;60.20;;;;;;5054724;28;1728;-66
2021/05/07 05:05:15;;;;;;;;;;;18.70;60.20;;;;;;5054505;28;1902;-66
2021/05/07 05:07:47;;;;;;;;;;;18.70;60.20;;;;;;5054600;28;1472;-66
2021/05/07 05:10:12;;;;;;;;;;;18.70;60.20;;;;;;5036804;28;1583;-66
2021/05/07 05:12:38;;;;;;;;;;;18.70;60.20;;;;;;5035833;28;1705;-66
2021/05/07 05:15:03;;;;;;;;;;;18.70;60.20;;;;;;5054154;28;1442;-66
2021/05/07 05:17:29;;;;;;;;;;;18.70;60.20;;;;;;5053513;28;1483;-66
2021/05/07 05:19:54;;;;;;;;;;;18.70;60.20;;;;;;5049539;28;1380;-65
2021/05/07 05:22:19;;;;;;;;;;;18.70;60.20;;;;;;5040345;28;1618;-66
2021/05/07 05:24:45;;;;;;;;;;;18.70;60.20;;;;;;5054682;28;1362;-67
2021/05/07 05:27:10;;;;;;;;;;;18.70;60.20;;;;;;5053990;28;1957;-66
2021/05/07 05:29:36;;;;;;;;;;;18.70;60.20;;;;;;5054393;28;969;-65
2021/05/07 05:32:01;;;;;;;;;;;18.70;60.10;;;;;;5054350;28;1502;-66
2021/05/07 05:34:27;;;;;;;;;;;18.70;60.10;;;;;;5054679;28;1402;-65
2021/05/07 05:36:52;;;;;;;;;;;18.70;60.10;;;;;;5052818;28;1439;-66
2021/05/07 05:39:18;;;;;;;;;;;18.70;60.10;;;;;;5053205;28;1428;-66
2021/05/07 05:41:43;;;;;;;;;;;18.70;60.10;;;;;;5053711;28;1631;-66
2021/05/07 05:44:09;;;;;;;;;;;18.70;60.10;;;;;;5054039;28;1576;-66
2021/05/07 05:46:35;;;;;;;;;;;18.80;60.10;;;;;;5053040;28;1906;-66
2021/05/07 05:49:00;;;;;;;;;;;18.70;60.10;;;;;;5054145;28;1675;-65
2021/05/07 05:51:26;;;;;;;;;;;18.70;60.00;;;;;;5053806;28;1568;-66
2021/05/07 05:53:51;;;;;;;;;;;18.70;60.10;;;;;;5054112;28;1335;-66
2021/05/07 05:56:17;;;;;;;;;;;18.70;60.80;;;;;;5053626;28;1565;-65
2021/05/07 05:58:42;;;;;;;;;;;18.80;60.20;;;;;;5053966;28;1665;-66
2021/05/07 06:01:08;;;;;;;;;;;18.70;60.10;;;;;;5053752;28;1695;-66
2021/05/07 06:03:33;;;;;;;;;;;18.80;60.10;;;;;;5053939;28;1630;-66
2021/05/07 06:05:58;;;;;;;;;;;18.80;60.10;;;;;;5053315;28;1894;-67
2021/05/07 06:08:24;;;;;;;;;;;18.80;60.10;;;;;;5035768;28;1721;-66
2021/05/07 06:10:49;;;;;;;;;;;18.80;60.10;;;;;;5053461;28;1707;-65
2021/05/07 06:13:15;;;;;;;;;;;18.80;60.10;;;;;;5053637;28;1388;-66
2021/05/07 06:15:40;;;;;;;;;;;18.80;60.10;;;;;;5035472;28;1578;-67
2021/05/07 06:18:06;;;;;;;;;;;18.80;60.00;;;;;;5053438;28;1353;-66
2021/05/07 06:20:31;;;;;;;;;;;18.80;60.00;;;;;;5043251;28;2110;-65
2021/05/07 06:22:56;;;;;;;;;;;18.80;60.10;;;;;;5046590;28;2222;-64
2021/05/07 06:25:25;;;;;;;;;;;18.80;60.00;;;;;;5051751;28;1918;-65
2021/05/07 06:27:50;;;;;;;;;;;18.80;60.10;;;;;;5047234;28;1582;-64
2021/05/07 06:30:16;;;;;;;;;;;18.80;60.00;;;;;;5035496;28;1387;-64
2021/05/07 06:32:41;;;;;;;;;;;18.80;60.00;;;;;;5031181;28;2198;-65
2021/05/07 06:35:07;;;;;;;;;;;18.80;60.00;;;;;;5049196;28;1387;-65
2021/05/07 06:37:32;;;;;;;;;;;18.80;60.00;;;;;;5043845;28;1900;-64
2021/05/07 06:39:58;;;;;;;;;;;18.80;60.00;;;;;;5034107;28;1588;-64
2021/05/07 06:42:23;;;;;;;;;;;18.80;60.00;;;;;;5032144;28;1602;-64
2021/05/07 06:44:48;;;;;;;;;;;18.80;60.00;;;;;;5044833;28;1447;-65
2021/05/07 06:47:14;;;;;;;;;;;18.80;60.00;;;;;;5034963;28;1899;-65
2021/05/07 06:49:43;;;;;;;;;;;18.80;60.00;;;;;;5052295;28;1572;-65
2021/05/07 06:52:08;;;;;;;;;;;18.80;60.00;;;;;;5052996;28;1455;-66
2021/05/07 06:54:34;;;;;;;;;;;18.80;60.00;;;;;;5035478;28;1706;-66
2021/05/07 06:57:02;;;;;;;;;;;18.80;60.00;;;;;;5052644;28;1484;-66
2021/05/07 06:59:27;;;;;;;;;;;18.80;60.00;;;;;;5052838;28;1417;-66
2021/05/07 07:01:53;;;;;;;;;;;18.80;60.00;;;;;;5053183;28;1427;-66
2021/05/07 07:04:18;;;;;;;;;;;18.80;60.00;;;;;;5052788;28;1584;-66
2021/05/07 07:06:44;;;;;;;;;;;18.80;59.90;;;;;;5052458;28;1959;-66
2021/05/07 07:09:09;;;;;;;;;;;18.80;59.90;;;;;;5053006;28;1615;-65
2021/05/07 07:11:35;;;;;;;;;;;18.80;59.90;;;;;;5053104;28;1412;-64
2021/05/07 07:14:00;;;;;;;;;;;18.80;59.90;;;;;;5052685;28;1206;-64
2021/05/07 07:16:26;;;;;;;;;;;18.80;59.90;;;;;;5052425;28;1158;-64
2021/05/07 07:18:52;;;;;;;;;;;18.80;59.90;;;;;;5052229;28;1091;-65
2021/05/07 07:21:17;;;;;;;;;;;18.80;59.90;;;;;;5037518;28;1273;-64
2021/05/07 07:23:43;;;;;;;;;;;18.80;59.90;;;;;;5051105;28;1088;-64
2021/05/07 07:26:08;;;;;;;;;;;18.80;59.90;;;;;;5052220;28;1918;-66
2021/05/07 07:28:35;;;;;;;;;;;18.80;59.90;;;;;;5052419;28;1107;-66
2021/05/07 07:31:01;;;;;;;;;;;18.80;59.90;;;;;;5034955;28;1275;-66
2021/05/07 07:33:26;;;;;;;;;;;18.80;59.90;;;;;;5052195;28;1103;-66
2021/05/07 07:35:52;;;;;;;;;;;18.80;59.90;;;;;;5052116;28;1084;-67
2021/05/07 07:38:17;;;;;;;;;;;18.80;59.90;;;;;;5052211;28;1068;-67
2021/05/07 07:40:43;;;;;;;;;;;18.80;59.90;;;;;;5034600;28;1338;-66
2021/05/07 07:43:08;;;;;;;;;;;18.80;59.90;;;;;;5052319;28;1187;-66
2021/05/07 07:45:33;;;;;;;;;;;18.80;59.90;;;;;;5052063;28;1945;-66
2021/05/07 07:47:59;;;;;;;;;;;18.80;59.90;;;;;;5052047;28;1079;-66
2021/05/07 07:50:25;;;;;;;;;;;18.80;59.90;;;;;;5052147;28;1201;-67
2021/05/07 07:52:50;;;;;;;;;;;18.80;59.90;;;;;;5052199;28;1182;-66
2021/05/07 07:55:16;;;;;;;;;;;18.80;59.90;;;;;;5052385;28;1079;-66
2021/05/07 07:57:42;;;;;;;;;;;18.80;59.90;;;;;;5052115;28;1064;-66
2021/05/07 08:00:07;;;;;;;;;;;18.80;59.90;;;;;;5052490;28;1127;-66
2021/05/07 08:02:33;;;;;;;;;;;18.80;59.90;;;;;;5036966;28;1301;-66
2021/05/07 08:04:58;;;;;;;;;;;18.80;59.90;;;;;;5055685;28;1882;-65
2021/05/07 08:07:24;;;;;;;;;;;18.80;59.90;;;;;;5055512;28;1202;-65
2021/05/07 08:09:49;;;;;;;;;;;18.90;59.90;;;;;;5055851;28;1064;-66
2021/05/07 08:12:15;;;;;;;;;;;18.90;59.90;;;;;;5055496;28;1270;-66
2021/05/07 08:14:40;;;;;;;;;;;18.90;59.90;;;;;;5056073;28;1249;-65
2021/05/07 08:17:06;;;;;;;;;;;18.90;59.90;;;;;;5055086;28;1080;-65
2021/05/07 08:19:31;;;;;;;;;;;18.90;59.90;;;;;;5054217;28;1079;-66
2021/05/07 08:21:56;;;;;;;;;;;18.90;59.90;;;;;;5039027;28;1371;-66
2021/05/07 08:24:22;;;;;;;;;;;18.90;59.90;;;;;;5055613;28;1060;-65
2021/05/07 08:26:48;;;;;;;;;;;18.90;59.90;;;;;;5037412;28;1914;-66
2021/05/07 08:29:13;;;;;;;;;;;18.90;59.90;;;;;;5037820;28;1088;-67
2021/05/07 08:31:39;;;;;;;;;;;18.90;59.90;;;;;;5055095;28;1286;-66
2021/05/07 08:34:04;;;;;;;;;;;18.90;59.90;;;;;;5055180;28;1154;-66
2021/05/07 08:36:29;;;;;;;;;;;18.90;59.90;;;;;;5054997;28;1127;-65
2021/05/07 08:38:55;;;;;;;;;;;18.90;59.90;;;;;;5055212;28;1118;-65
2021/05/07 08:41:20;;;;;;;;;;;18.90;59.90;;;;;;5055256;28;1337;-64
2021/05/07 08:43:46;;;;;;;;;;;18.90;59.90;;;;;;5037200;28;1076;-64
2021/05/07 08:46:12;;;;;;;;;;;18.90;59.90;;;;;;5054591;28;1902;-65
2021/05/07 08:48:41;;;;;;;;;;;18.90;59.90;;;;;;5020354;28;1512;-64
2021/05/07 08:51:06;;;;;;;;;;;18.90;59.90;;;;;;5037535;28;1284;-64
2021/05/07 08:53:32;;;;;;;;;;;18.90;59.80;;;;;;5055215;28;1064;-67
2021/05/07 08:56:03;;;;;;;;;;;18.90;59.90;;;;;;5054720;28;1083;-65
2021/05/07 08:58:29;;;;;;;;;;;18.90;59.80;;;;;;5037052;28;1139;-67
2021/05/07 09:00:54;;;;;;;;;;;18.90;59.80;;;;;;5054602;28;1224;-65
2021/05/07 09:03:20;;;;;;;;;;;18.90;59.90;;;;;;5036870;28;1457;-66
2021/05/07 09:05:45;;;;;;;;;;;18.90;59.80;;;;;;5054259;28;1949;-66
2021/05/07 09:08:11;;;;;;;;;;;18.90;59.80;;;;;;5054656;28;1081;-66
2021/05/07 09:10:40;;;;;;;;;;;18.90;59.80;;;;;;5054503;28;1377;-66
2021/05/07 09:13:06;;;;;;;;;;;18.90;59.80;;;;;;5035987;28;1167;-66
2021/05/07 09:15:44;;;;;;;;;;;18.90;59.80;;;;;;5036405;28;1233;-66
2021/05/07 09:18:10;;;;;;;;;;;18.90;59.80;;;;;;5054711;28;1372;-66
2021/05/07 09:20:56;;;;;;;;;;;18.90;59.80;;;;;;5044834;28;1354;-67
2021/05/07 09:23:21;;;;;;;;;;;18.90;59.80;;;;;;5048870;28;1441;-66
2021/05/07 09:25:59;;;;;;;;;;;18.90;59.80;;;;;;5054125;28;1969;-65
2021/05/07 09:28:24;;;;;;;;;;;18.90;59.80;;;;;;5054306;28;1210;-66
2021/05/07 09:30:50;;;;;;;;;;;18.90;59.80;;;;;;5036475;28;1268;-67
2021/05/07 09:33:15;;;;;;;;;;;18.90;59.90;;;;;;5047194;28;1797;-66
2021/05/07 09:35:41;;;;;;;;;;;18.90;59.80;;;;;;5038267;28;1297;-65
2021/05/07 09:38:07;;;;;;;;;;;18.90;59.80;;;;;;5035186;28;1138;-66
2021/05/07 09:40:33;;;;;;;;;;;18.90;59.80;;;;;;5035979;28;1283;-66
2021/05/07 09:43:20;;;;;;;;;;;18.90;59.80;;;;;;5043376;28;1327;-66
2021/05/07 09:45:49;;;;;;;;;;;18.90;59.80;;;;;;5046181;28;1906;-66
2021/05/07 09:48:15;;;;;;;;;;;18.90;59.80;;;;;;5049230;28;1158;-65
2021/05/07 09:50:41;;;;;;;;;;;18.90;59.80;;;;;;5050363;28;1339;-66
2021/05/07 09:53:06;;;;;;;;;;;18.90;59.80;;;;;;5053640;28;1158;-66
2021/05/07 09:55:32;;;;;;;;;;;18.90;59.80;;;;;;5053478;28;1123;-67
2021/05/07 09:57:57;;;;;;;;;;;18.90;59.70;;;;;;5053645;28;1198;-66
2021/05/07 10:00:23;;;;;;;;;;;18.90;59.70;;;;;;5053757;28;989;-67
2021/05/07 10:02:49;;;;;;;;;;;18.90;59.70;;;;;;5053582;28;1138;-66
2021/05/07 10:05:17;;;;;;;;;;;18.90;59.70;;;;;;5053338;28;1959;-67
2021/05/07 10:07:42;;;;;;;;;;;18.90;59.70;;;;;;5035516;28;1132;-67
2021/05/07 10:10:08;;;;;;;;;;;19.00;59.70;;;;;;5053615;28;1122;-64
2021/05/07 10:12:36;;;;;;;;;;;19.00;59.80;;;;;;5053364;28;1284;-67
2021/05/07 10:15:02;;;;;;;;;;;19.00;59.70;;;;;;5035593;28;1092;-66
2021/05/07 10:17:27;;;;;;;;;;;19.00;59.70;;;;;;5053254;28;1210;-67
2021/05/07 10:19:53;;;;;;;;;;;19.00;59.70;;;;;;5031185;28;1092;-67
2021/05/07 10:22:25;;;;;;;;;;;19.00;59.70;;;;;;5022039;28;1273;-66
2021/05/07 10:24:51;;;;;;;;;;;19.00;59.70;;;;;;5053393;28;1064;-66
2021/05/07 10:27:20;;;;;;;;;;;19.00;59.70;;;;;;5039562;28;1910;-66
2021/05/07 10:30:05;;;;;;;;;;;19.00;59.70;;;;;;5053830;28;1048;-66
2021/05/07 10:32:39;;;;;;;;;;;19.00;59.70;;;;;;5053168;28;1237;-66
2021/05/07 10:35:05;;;;;;;;;;;19.00;59.70;;;;;;5052981;28;1040;-66
2021/05/07 10:37:41;;;;;;;;;;;19.00;59.70;;;;;;5053207;28;1027;-66
2021/05/07 10:40:07;;;;;;;;;;;19.00;59.70;;;;;;5052987;28;1178;-66
2021/05/07 10:42:32;;;;;;;;;;;19.00;59.70;;;;;;5035275;28;1201;-66
2021/05/07 10:44:58;;;;;;;;;;;19.00;59.70;;;;;;5052982;28;1131;-66
2021/05/07 10:47:36;;;;;;;;;;;19.00;59.70;;;;;;5052471;28;1894;-66
2021/05/07 10:50:11;;;;;;;;;;;19.00;59.70;;;;;;5035180;28;1116;-66
2021/05/07 10:52:37;;;;;;;;;;;19.00;59.70;;;;;;5034994;28;1265;-66
2021/05/07 10:55:03;;;;;;;;;;;19.00;59.70;;;;;;5035030;28;1207;-66
2021/05/07 10:57:29;;;;;;;;;;;19.00;59.70;;;;;;5035004;28;1140;-66
2021/05/07 10:59:55;;;;;;;;;;;19.00;59.70;;;;;;5052753;28;988;-66
2021/05/07 11:02:20;;;;;;;;;;;19.00;59.70;;;;;;5052678;28;1192;-67
2021/05/07 11:04:47;;;;;;;;;;;18.90;59.70;;;;;;5038926;28;1040;-66
2021/05/07 11:07:12;;;;;;;;;;;19.00;59.70;;;;;;5034605;28;1961;-66
2021/05/07 11:09:38;;;;;;;;;;;19.00;59.70;;;;;;5034952;28;1096;-66
2021/05/07 11:12:03;;;;;;;;;;;18.90;59.70;;;;;;5052353;28;1256;-66
2021/05/07 11:14:35;;;;;;;;;;;18.90;59.70;;;;;;5052350;28;1100;-66
2021/05/07 11:17:03;;;;;;;;;;;18.90;59.70;;;;;;5052317;28;1170;-66
2021/05/07 11:19:35;;;;;;;;;;;18.90;59.70;;;;;;5033532;28;1072;-66
2021/05/07 11:22:03;;;;;;;;;;;18.90;59.70;;;;;;5013440;28;1685;-66
2021/05/07 11:24:30;;;;;;;;;;;18.90;59.80;;;;;;5043512;28;1056;-66
2021/05/07 11:26:55;;;;;;;;;;;18.90;59.80;;;;;;5052102;28;1969;-66
2021/05/07 11:29:25;;;;;;;;;;;18.90;59.80;;;;;;5052399;28;1059;-66
2021/05/07 11:31:50;;;;;;;;;;;18.90;59.80;;;;;;5052296;28;1350;-65
2021/05/07 11:34:25;;;;;;;;;;;18.90;59.80;;;;;;5052222;28;1626;-65
2021/05/07 11:36:58;;;;;;;;;;;18.90;59.90;;;;;;5053682;28;1166;-65
2021/05/07 11:39:23;;;;;;;;;;;18.90;59.90;;;;;;5056191;28;1072;-65
2021/05/07 11:41:48;;;;;;;;;;;18.90;59.90;;;;;;5056300;28;1227;-66
2021/05/07 11:44:14;;;;;;;;;;;18.90;59.90;;;;;;5056043;28;1123;-65
2021/05/07 11:46:40;;;;;;;;;;;18.90;60.00;;;;;;5055992;28;1910;-65
2021/05/07 11:49:05;;;;;;;;;;;18.80;59.90;;;;;;5056027;28;1095;-65
2021/05/07 11:51:31;;;;;;;;;;;18.80;59.90;;;;;;5056117;28;1286;-66
2021/05/07 11:53:59;;;;;;;;;;;18.80;59.90;;;;;;5038054;28;1060;-65
2021/05/07 11:56:25;;;;;;;;;;;18.80;59.90;;;;;;5055870;28;1084;-67
2021/05/07 11:58:51;;;;;;;;;;;18.80;59.90;;;;;;5055906;28;1072;-66
2021/05/07 12:01:17;;;;;;;;;;;18.80;60.00;;;;;;5056055;28;1201;-66
2021/05/07 12:03:43;;;;;;;;;;;18.80;60.00;;;;;;5055850;28;1099;-67
2021/05/07 12:06:17;;;;;;;;;;;18.80;60.00;;;;;;5053629;28;1957;-65
2021/05/07 12:08:43;;;;;;;;;;;18.80;60.00;;;;;;5050821;28;1069;-68
2021/05/07 12:11:09;;;;;;;;;;;18.80;60.00;;;;;;5030014;28;1318;-65
2021/05/07 12:13:35;;;;;;;;;;;18.80;60.80;;;;;;5031693;28;1547;-64
2021/05/07 12:16:00;;;;;;;;;;;18.80;60.00;;;;;;5055310;28;1096;-65
2021/05/07 12:18:25;;;;;;;;;;;18.80;60.00;;;;;;5055508;28;1127;-64
2021/05/07 12:20:55;;;;;;;;;;;18.80;60.10;;;;;;5043571;28;1291;-65
2021/05/07 12:23:20;;;;;;;;;;;18.80;60.10;;;;;;5050007;28;1123;-65
2021/05/07 12:25:46;;;;;;;;;;;18.80;60.10;;;;;;5020876;28;1926;-64
2021/05/07 12:28:12;;;;;;;;;;;18.80;60.00;;;;;;5055795;28;1298;-64
2021/05/07 12:30:37;;;;;;;;;;;18.80;60.00;;;;;;5055069;28;1274;-64
2021/05/07 12:33:04;;;;;;;;;;;18.80;60.00;;;;;;5055405;28;1158;-65
2021/05/07 12:35:35;;;;;;;;;;;18.80;59.90;;;;;;5034938;28;2146;-64
2021/05/07 12:38:12;;;;;;;;;;;18.80;59.90;;;;;;5048638;28;1964;-65
2021/05/07 12:40:37;;;;;;;;;;;18.80;59.90;;;;;;5051406;28;1278;-64
2021/05/07 12:43:03;;;;;;;;;;;18.80;59.90;;;;;;5049534;28;1161;-64
2021/05/07 12:45:28;;;;;;;;;;;18.80;59.90;;;;;;5049618;28;1902;-63
2021/05/07 12:47:53;;;;;;;;;;;18.80;59.80;;;;;;5045512;28;1326;-65
2021/05/07 12:50:19;;;;;;;;;;;18.90;59.90;;;;;;5037126;28;1088;-64
2021/05/07 12:52:44;;;;;;;;;;;18.90;59.90;;;;;;5054862;28;1231;-64
2021/05/07 12:55:10;;;;;;;;;;;18.90;59.80;;;;;;5054691;28;1071;-65
2021/05/07 12:57:35;;;;;;;;;;;18.90;59.80;;;;;;5054984;28;1186;-65
2021/05/07 13:00:01;;;;;;;;;;;18.90;59.80;;;;;;5046674;28;1319;-65
2021/05/07 13:02:26;;;;;;;;;;;18.90;59.80;;;;;;5054952;28;1199;-65
2021/05/07 13:04:52;;;;;;;;;;;18.90;59.80;;;;;;5054657;28;1063;-65
2021/05/07 13:07:17;;;;;;;;;;;18.80;59.70;;;;;;5054484;28;1898;-64
2021/05/07 13:09:42;;;;;;;;;;;18.90;59.80;;;;;;5054731;28;1112;-65
2021/05/07 13:12:08;;;;;;;;;;;18.90;59.70;;;;;;5081095;22;3758;-69
2021/05/07 13:14:33;;;;;;;;;;;18.90;59.70;;;;;;5086457;28;2140;-70
2021/05/07 13:16:59;;;;;;;;;;;18.90;59.70;;;;;;5092422;28;2638;-70
2021/05/07 13:19:25;;;;;;;;;;;18.90;59.70;;;;;;5075922;28;1182;-68
2021/05/07 13:21:53;;;;;;;;;;;18.90;59.70;;;;;;5061758;28;1303;-68
2021/05/07 13:24:19;;;;;;;;;;;18.90;59.70;;;;;;5074426;28;1059;-68
2021/05/07 13:26:44;;;;;;;;;;;18.90;59.70;;;;;;5073907;28;1969;-66
2021/05/07 13:29:10;;;;;;;;;;;18.90;59.70;;;;;;5073268;28;1079;-66
2021/05/07 13:31:35;;;;;;;;;;;18.90;59.70;;;;;;5056220;28;1376;-68
2021/05/07 13:34:00;;;;;;;;;;;18.90;59.80;;;;;;5074121;28;1110;-67
2021/05/07 13:36:26;;;;;;;;;;;18.90;59.70;;;;;;5074091;28;1031;-68
2021/05/07 13:38:51;;;;;;;;;;;18.90;59.70;;;;;;5074200;28;1039;-68
2021/05/07 13:41:17;;;;;;;;;;;18.90;59.70;;;;;;5073162;28;1706;-68
2021/05/07 13:43:42;;;;;;;;;;;18.90;59.70;;;;;;5056107;28;1154;-68
2021/05/07 13:46:08;;;;;;;;;;;18.90;59.70;;;;;;5073730;28;1902;-69
2021/05/07 13:48:34;;;;;;;;;;;18.90;59.70;;;;;;5073763;28;1069;-68
2021/05/07 13:50:59;;;;;;;;;;;18.90;59.70;;;;;;5073933;28;1339;-68
2021/05/07 13:53:24;;;;;;;;;;;18.90;59.70;;;;;;5074203;28;1067;-69
2021/05/07 13:55:50;;;;;;;;;;;18.90;60.40;;;;;;5073585;28;1150;-66
2021/05/07 13:58:15;;;;;;;;;;;18.90;59.70;;;;;;5073871;28;1083;-67
2021/05/07 14:00:41;;;;;;;;;;;18.90;59.70;;;;;;5073322;28;1051;-67
2021/05/07 14:03:06;;;;;;;;;;;18.90;59.70;;;;;;5073416;28;1317;-68
2021/05/07 14:05:32;;;;;;;;;;;18.90;59.80;;;;;;5073258;28;1906;-67
2021/05/07 14:07:57;;;;;;;;;;;18.90;59.70;;;;;;5073692;28;1071;-67
2021/05/07 14:10:24;;;;;;;;;;;18.90;59.70;;;;;;5073529;28;1213;-67
2021/05/07 14:12:49;;;;;;;;;;;18.90;59.70;;;;;;5073438;28;1185;-68
2021/05/07 14:15:15;;;;;;;;;;;18.90;59.70;;;;;;5073174;28;1161;-68
2021/05/07 14:17:40;;;;;;;;;;;18.90;59.80;;;;;;5073188;28;1086;-68
2021/05/07 14:20:13;;;;;;;;;;;18.90;59.80;;;;;;5067871;28;1110;-67
2021/05/07 14:22:39;;;;;;;;;;;18.90;59.70;;;;;;5072034;28;1305;-67
2021/05/07 14:25:05;;;;;;;;;;;18.90;59.80;;;;;;5073100;28;1127;-67